Time;durP1;ratioP1;P1;durP2;ratioP2;P2;SDS_P1;SDS_P2;PMS_P1;PMS_P2;Temp;Humidity;BMP_temperature;BMP_pressure;BME280_temperature;BME280_humidity;BME280_pressure;Samples;Min_cycle;Max_cycle;Signal;HPM_P1;HPM_P2
2021/12/17 00:01:02;;;;;;;;;33.25;29.00;;;;;9.47;87.73;102134.34;5092016;28;8849;-57
2021/12/17 00:03:39;;;;;;;;;35.50;30.50;;;;;9.47;87.46;102142.31;5090228;28;8830;-57
2021/12/17 00:06:17;;;;;;;;;29.60;21.60;;;;;9.46;87.33;102135.28;5091384;28;8866;-57
2021/12/17 00:08:44;;;;;;;;;42.25;31.75;;;;;9.47;87.90;102142.31;5091572;28;8852;-57
2021/12/17 00:11:12;;;;;;;;;19.20;18.00;;;;;9.47;87.94;102136.13;5090728;28;8834;-57
2021/12/17 00:13:40;;;;;;;;;24.25;20.25;;;;;9.46;88.05;102135.28;5088835;28;9179;-57
2021/12/17 00:16:14;;;;;;;;;38.20;33.80;;;;;9.46;87.77;102137.94;5089401;28;8845;-57
2021/12/17 00:18:55;;;;;;;;;32.50;27.25;;;;;9.46;87.59;102135.28;5091840;28;8842;-58
2021/12/17 00:44:17;;;;;;;;;42.50;35.50;;;;;9.34;88.36;102119.78;5091090;28;8852;-57
2021/12/17 00:49:30;;;;;;;;;42.80;38.80;;;;;9.34;88.22;102122.44;5091528;28;8859;-57
2021/12/17 00:51:59;;;;;;;;;18.80;13.80;;;;;9.35;88.07;102110.88;5091544;28;8828;-58
2021/12/17 00:54:32;;;;;;;;;35.75;31.00;;;;;9.36;87.82;102117.06;5090941;28;8832;-57
2021/12/17 00:57:00;;;;;;;;;30.40;28.40;;;;;9.36;88.31;102111.75;5090483;28;9529;-57
2021/12/17 00:59:27;;;;;;;;;31.00;27.40;;;;;9.37;88.37;102106.41;5091924;28;8852;-57
2021/12/17 01:01:55;;;;;;;;;40.80;33.80;;;;;9.39;87.83;102107.19;5089575;28;8843;-57
2021/12/17 01:04:23;;;;;;;;;41.00;32.50;;;;;9.40;87.98;102114.22;5091125;28;8862;-57
2021/12/17 01:06:50;;;;;;;;;36.20;28.80;;;;;9.41;88.26;102113.31;5090893;28;8847;-57
2021/12/17 01:09:18;;;;;;;;;33.00;27.25;;;;;9.41;87.96;102115.97;5092265;28;8844;-57
2021/12/17 01:11:46;;;;;;;;;18.00;12.25;;;;;9.42;88.07;102111.53;5091408;28;9001;-57
2021/12/17 01:14:14;;;;;;;;;37.50;30.75;;;;;9.42;87.87;102107.06;5092325;28;8917;-57
2021/12/17 01:16:41;;;;;;;;;25.75;24.50;;;;;9.43;88.14;102111.44;5090477;28;8853;-57
2021/12/17 01:19:17;;;;;;;;;34.75;31.75;;;;;9.44;88.07;102112.31;5092511;28;8848;-57
2021/12/17 01:21:59;;;;;;;;;24.50;17.00;;;;;9.44;88.42;102105.22;5091989;28;8860;-58
2021/12/17 01:24:37;;;;;;;;;29.00;27.00;;;;;9.44;88.00;102110.53;5091732;28;8894;-57
2021/12/17 01:35:22;;;;;;;;;22.80;20.40;;;;;9.46;87.91;102111.34;5092114;28;8955;-57
2021/12/17 01:39:00;;;;;;;;;30.25;28.50;;;;;9.46;87.71;102103.34;5091764;28;9668;-57
2021/12/17 01:41:44;;;;;;;;;27.00;23.00;;;;;9.46;87.78;102103.34;5090168;28;8838;-57
2021/12/17 01:44:11;;;;;;;;;32.50;30.00;;;;;9.47;87.99;102109.53;5070267;28;8856;-57
2021/12/17 01:46:38;;;;;;;;;27.00;25.00;;;;;9.45;88.05;102106.06;5070710;28;8894;-58
2021/12/17 01:49:22;;;;;;;;;22.50;21.50;;;;;9.45;88.17;102111.38;5071669;28;9548;-57
2021/12/17 02:00:06;;;;;;;;;32.60;28.20;;;;;9.44;87.74;102105.22;5090663;28;8853;-57
2021/12/17 02:02:40;;;;;;;;;24.60;14.60;;;;;9.45;88.36;102111.38;5089421;28;8846;-57
2021/12/17 02:05:08;;;;;;;;;27.00;24.50;;;;;9.44;87.98;102110.53;5090786;28;8902;-57
2021/12/17 02:07:35;;;;;;;;;32.00;27.00;;;;;9.45;87.95;102111.38;5091041;28;8848;-57
2021/12/17 02:10:38;;;;;;;;;27.75;26.00;;;;;9.45;88.20;102112.25;5090870;28;8856;-57
2021/12/17 02:19:26;;;;;;;;;26.50;24.50;;;;;9.45;87.85;102111.38;5090035;28;8968;-57
2021/12/17 02:29:57;;;;;;;;;24.75;23.75;;;;;9.40;87.86;102116.91;5069890;28;8844;-57
2021/12/17 02:32:28;;;;;;;;;25.25;19.00;;;;;9.39;88.05;102112.50;5078334;28;8872;-57
2021/12/17 02:37:41;;;;;;;;;25.00;22.50;;;;;9.40;87.99;102116.91;5088080;28;9540;-58
2021/12/17 02:40:20;;;;;;;;;31.50;28.50;;;;;9.40;87.90;102108.03;5089645;28;8834;-57
2021/12/17 02:45:32;;;;;;;;;37.50;29.50;;;;;9.41;88.25;102107.97;5088481;28;8845;-58
2021/12/17 02:48:01;;;;;;;;;18.25;18.00;;;;;9.41;88.06;102107.13;5088950;28;8952;-57
2021/12/17 02:50:28;;;;;;;;;35.00;29.00;;;;;9.41;88.04;102102.66;5088088;28;9209;-57
2021/12/17 02:52:56;;;;;;;;;31.50;26.50;;;;;9.42;87.91;102112.38;5089263;28;8842;-57
2021/12/17 02:55:24;;;;;;;;;27.00;23.00;;;;;9.42;87.78;102111.53;5089400;28;8870;-57
2021/12/17 02:57:52;;;;;;;;;23.80;18.60;;;;;9.43;88.10;102116.75;5089099;28;8822;-57
2021/12/17 03:00:19;;;;;;;;;31.50;25.75;;;;;9.44;88.30;102121.19;5089735;28;8845;-57
2021/12/17 03:02:47;;;;;;;;;29.00;28.00;;;;;9.44;87.85;102107.88;5088959;28;8834;-58
2021/12/17 03:05:15;;;;;;;;;24.25;21.00;;;;;9.46;88.18;102116.66;5088474;28;8866;-58
2021/12/17 03:07:46;;;;;;;;;33.25;29.00;;;;;9.46;88.32;102111.34;5089819;28;9584;-57
2021/12/17 03:10:15;;;;;;;;;33.60;31.20;;;;;9.46;88.08;102107.78;5089657;28;8910;-57
2021/12/17 03:12:45;;;;;;;;;34.40;31.00;;;;;9.46;88.01;102108.69;5088109;28;8970;-57
2021/12/17 03:15:19;;;;;;;;;29.50;27.00;;;;;9.47;88.12;102118.38;5090517;28;8860;-57
2021/12/17 03:23:32;;;;;;;;;29.50;25.50;;;;;9.46;88.35;102108.69;5081545;28;8841;-57
2021/12/17 03:26:00;;;;;;;;;28.50;22.50;;;;;9.46;88.06;102108.69;5088858;28;8834;-57
2021/12/17 03:28:28;;;;;;;;;18.75;16.25;;;;;9.45;88.33;102101.63;5089341;28;8846;-58
2021/12/17 03:30:55;;;;;;;;;21.75;18.75;;;;;9.45;87.70;102096.31;5088105;28;8838;-57
2021/12/17 03:33:23;;;;;;;;;23.75;19.00;;;;;9.46;87.93;102091.84;5087141;28;8909;-57
2021/12/17 03:35:51;;;;;;;;;11.75;9.00;;;;;9.46;88.13;102091.84;5089211;28;8874;-57
2021/12/17 03:38:18;;;;;;;;;34.00;31.25;;;;;9.47;88.34;102091.78;5089833;28;8850;-57
2021/12/17 03:40:47;;;;;;;;;32.75;26.00;;;;;9.47;87.70;102098.88;5092952;28;8830;-57
2021/12/17 03:43:29;;;;;;;;;22.00;19.00;;;;;9.48;87.84;102100.66;5092152;28;8842;-57
2021/12/17 03:45:56;;;;;;;;;29.25;27.50;;;;;9.47;87.83;102099.75;5094100;28;8854;-58
2021/12/17 03:48:24;;;;;;;;;31.75;26.00;;;;;9.47;88.09;102098.88;5094758;28;8986;-57
2021/12/17 03:50:52;;;;;;;;;37.00;28.80;;;;;9.47;87.89;102105.09;5092920;28;8830;-57
2021/12/17 03:53:20;;;;;;;;;42.40;36.60;;;;;9.47;87.87;102102.44;5092660;28;8852;-57
2021/12/17 03:55:48;;;;;;;;;30.50;27.00;;;;;9.48;87.79;102112.13;5093154;28;8894;-57
2021/12/17 03:58:16;;;;;;;;;36.00;28.50;;;;;9.48;88.06;102112.13;5092061;28;8853;-57
2021/12/17 04:00:45;;;;;;;;;28.75;24.75;;;;;9.48;88.15;102109.47;5092134;28;9476;-57
2021/12/17 04:03:12;;;;;;;;;15.00;13.50;;;;;9.47;88.03;102106.88;5093047;28;8822;-57
2021/12/17 04:05:41;;;;;;;;;28.25;27.00;;;;;9.48;88.02;102117.44;5092357;28;9875;-57
2021/12/17 04:08:09;;;;;;;;;23.50;20.00;;;;;9.49;87.75;102113.00;5091110;28;8904;-57
2021/12/17 04:10:42;;;;;;;;;22.50;19.00;;;;;9.49;88.32;102111.19;5090902;28;8869;-57
2021/12/17 04:13:29;;;;;;;;;13.75;10.75;;;;;9.50;88.02;102120.06;5091844;28;8850;-58
2021/12/17 04:15:59;;;;;;;;;22.25;20.00;;;;;9.51;88.45;102111.16;5092068;28;9512;-58
2021/12/17 04:18:27;;;;;;;;;31.25;22.25;;;;;9.50;88.13;102112.94;5092514;28;8858;-58
2021/12/17 04:20:55;;;;;;;;;31.00;22.00;;;;;9.51;87.96;102111.16;5090458;28;8840;-57
2021/12/17 04:23:23;;;;;;;;;25.25;21.75;;;;;9.49;87.97;102103.22;5091552;28;8968;-57
2021/12/17 04:25:50;;;;;;;;;26.00;20.00;;;;;9.50;88.46;102110.25;5090968;28;8852;-57
2021/12/17 04:28:18;;;;;;;;;23.25;20.50;;;;;9.49;88.32;102103.22;5092895;28;8956;-57
2021/12/17 04:30:46;;;;;;;;;20.75;19.25;;;;;9.50;88.51;102110.25;5090978;28;8826;-57
2021/12/17 04:33:14;;;;;;;;;30.00;26.00;;;;;9.48;87.77;102112.13;5090997;28;8818;-57
2021/12/17 04:35:41;;;;;;;;;37.50;29.00;;;;;9.48;87.92;102113.94;5089813;28;8862;-57
2021/12/17 04:38:10;;;;;;;;;28.25;21.00;;;;;9.47;88.47;102110.41;5092667;28;8867;-57
2021/12/17 04:40:40;;;;;;;;;35.00;31.00;;;;;9.46;88.36;102110.47;5091388;28;8866;-58
2021/12/17 04:43:29;;;;;;;;;21.50;19.00;;;;;9.45;88.40;102106.94;5093136;28;8980;-57
2021/12/17 04:46:04;;;;;;;;;29.00;21.50;;;;;9.46;88.17;102110.47;5092095;28;8868;-57
2021/12/17 04:59:34;;;;;;;;;23.75;19.75;;;;;9.44;88.68;102107.00;5092010;28;8838;-57
2021/12/17 05:02:03;;;;;;;;;19.00;14.50;;;;;9.44;88.13;102110.53;5090463;28;8961;-57
2021/12/17 05:04:30;;;;;;;;;22.25;19.25;;;;;9.44;88.02;102121.19;5092182;28;8862;-57
2021/12/17 05:06:58;;;;;;;;;25.50;22.00;;;;;9.44;88.17;102125.63;5091474;28;8853;-58
2021/12/17 05:09:33;;;;;;;;;32.00;27.00;;;;;9.45;88.39;102128.22;5091753;28;9534;-57
2021/12/17 05:20:29;;;;;;;;;29.50;26.00;;;;;9.46;88.00;102129.94;5088953;28;9480;-58
2021/12/17 05:22:58;;;;;;;;;28.50;26.25;;;;;9.46;88.38;102126.41;5090631;28;8964;-58
2021/12/17 05:25:28;;;;;;;;;41.00;32.25;;;;;9.46;88.34;102129.94;5090299;28;8844;-58
2021/12/17 05:27:59;;;;;;;;;25.25;23.75;;;;;9.46;88.51;102118.44;5090954;28;8849;-57
2021/12/17 05:30:28;;;;;;;;;32.75;32.00;;;;;9.46;88.45;102123.75;5091592;28;8826;-58
2021/12/17 05:32:55;;;;;;;;;27.50;26.00;;;;;9.45;88.38;102117.59;5090880;28;8845;-58
2021/12/17 05:35:23;;;;;;;;;29.50;28.00;;;;;9.46;88.56;102129.94;5090841;28;8870;-57
2021/12/17 05:37:51;;;;;;;;;31.00;29.25;;;;;9.47;88.15;102136.13;5089518;28;8838;-58
2021/12/17 05:40:18;;;;;;;;;34.50;28.50;;;;;9.46;88.20;102137.94;5089596;28;8856;-57
2021/12/17 05:42:48;;;;;;;;;28.75;26.00;;;;;9.46;87.97;102129.94;5090905;28;8837;-58
2021/12/17 05:45:32;;;;;;;;;19.75;15.25;;;;;9.47;88.45;102125.47;5090136;28;8864;-57
2021/12/17 05:48:00;;;;;;;;;16.75;15.00;;;;;9.47;88.40;102125.47;5088620;28;8865;-58
2021/12/17 05:50:28;;;;;;;;;29.75;25.25;;;;;9.46;87.99;102123.75;5088325;28;8881;-58
2021/12/17 05:52:56;;;;;;;;;17.25;15.25;;;;;9.46;88.38;102129.06;5089997;28;8838;-58
2021/12/17 05:55:24;;;;;;;;;32.50;30.25;;;;;9.45;88.17;102120.25;5089554;28;8842;-58
2021/12/17 05:57:52;;;;;;;;;35.00;26.00;;;;;9.44;88.32;102115.84;5087587;28;8849;-58
2021/12/17 06:00:20;;;;;;;;;27.00;24.25;;;;;9.44;88.01;102107.88;5088288;28;8848;-57
2021/12/17 06:02:48;;;;;;;;;22.75;17.00;;;;;9.44;88.31;102105.22;5088630;28;8911;-58
2021/12/17 06:05:16;;;;;;;;;28.75;26.50;;;;;9.45;88.29;102106.06;5088493;28;8846;-58
2021/12/17 06:07:43;;;;;;;;;28.50;26.00;;;;;9.45;87.96;102098.09;5087037;28;8838;-57
2021/12/17 06:10:11;;;;;;;;;21.75;20.50;;;;;9.45;88.34;102096.31;5087363;28;8860;-57
2021/12/17 06:12:39;;;;;;;;;24.25;20.00;;;;;9.44;87.87;102089.25;5086461;28;8869;-57
2021/12/17 06:15:06;;;;;;;;;23.50;23.00;;;;;9.45;88.19;102091.00;5085976;28;8844;-57
2021/12/17 06:17:34;;;;;;;;;21.50;21.25;;;;;9.45;88.63;102087.47;5084891;28;8846;-57
2021/12/17 06:20:02;;;;;;;;;20.50;19.75;;;;;9.45;88.16;102084.78;5084495;28;8872;-58
2021/12/17 06:22:32;;;;;;;;;16.00;13.25;;;;;9.45;88.19;102076.81;5084503;28;9107;-57
2021/12/17 06:25:00;;;;;;;;;21.25;17.00;;;;;9.45;87.89;102077.69;5087504;28;8837;-57
2021/12/17 06:27:28;;;;;;;;;18.50;15.00;;;;;9.45;88.35;102075.03;5083575;28;8846;-57
2021/12/17 06:29:57;;;;;;;;;17.00;16.50;;;;;9.45;88.00;102074.16;5081632;28;8838;-58
2021/12/17 06:32:25;;;;;;;;;15.75;14.00;;;;;9.45;88.12;102082.13;5082455;28;8838;-57
2021/12/17 06:34:53;;;;;;;;;12.75;9.75;;;;;9.46;88.01;102081.19;5085160;28;8946;-57
2021/12/17 06:37:20;;;;;;;;;13.25;12.25;;;;;9.46;88.17;102078.53;5084205;28;9519;-57
2021/12/17 06:39:48;;;;;;;;;3.75;3.25;;;;;9.44;88.14;102085.72;5080765;28;8857;-57
2021/12/17 06:42:16;;;;;;;;;19.25;18.50;;;;;9.45;88.30;102091.00;5082105;28;8838;-57
2021/12/17 06:44:45;;;;;;;;;12.50;11.75;;;;;9.44;88.01;102083.06;5080724;28;8862;-58
2021/12/17 06:47:25;;;;;;;;;12.00;9.25;;;;;9.45;88.11;102084.78;5081839;28;9203;-57
2021/12/17 06:49:57;;;;;;;;;12.00;12.00;;;;;9.44;88.34;102086.59;5082406;28;8857;-57
2021/12/17 06:55:27;;;;;;;;;20.50;17.75;;;;;9.42;88.24;102099.06;5082917;28;8861;-57
2021/12/17 06:58:35;;;;;;;;;20.50;16.00;;;;;9.41;88.33;102094.69;5081215;28;8844;-57
2021/12/17 07:01:12;;;;;;;;;14.50;12.25;;;;;9.39;88.32;102091.25;5080541;28;8866;-57
2021/12/17 07:06:44;;;;;;;;;13.00;12.25;;;;;9.38;88.57;102094.81;5080432;28;8849;-58
2021/12/17 07:17:27;;;;;;;;;22.25;20.00;;;;;9.35;88.31;102100.25;5082036;28;8830;-57
2021/12/17 07:23:05;;;;;;;;;14.25;12.25;;;;;9.33;88.29;102099.44;5083321;28;8892;-58
2021/12/17 07:28:51;;;;;;;;;13.00;12.25;;;;;9.32;88.39;102105.69;5084943;28;8838;-57
2021/12/17 07:34:06;;;;;;;;;5.75;5.50;;;;;9.29;88.94;102104.97;5080595;28;8854;-58
2021/12/17 07:36:41;;;;;;;;;18.00;14.50;;;;;9.28;88.79;102109.38;5062645;28;9549;-57
2021/12/17 07:39:08;;;;;;;;;17.25;14.25;;;;;9.28;88.56;102105.88;5064076;28;8844;-57
2021/12/17 07:41:36;;;;;;;;;15.00;15.00;;;;;9.29;88.73;102120.91;5059203;28;8860;-58
2021/12/17 07:44:03;;;;;;;;;7.00;6.00;;;;;9.29;88.38;102124.44;5063047;28;8961;-57
2021/12/17 07:46:32;;;;;;;;;9.00;8.25;;;;;9.28;88.97;102122.69;5061459;28;8844;-57
2021/12/17 07:48:59;;;;;;;;;11.50;10.00;;;;;9.27;89.16;102118.31;5062142;28;8882;-57
2021/12/17 07:51:27;;;;;;;;;16.00;12.50;;;;;9.28;88.96;102129.81;5061926;28;8868;-57
2021/12/17 07:53:56;;;;;;;;;13.25;12.50;;;;;9.27;88.90;102133.41;5060861;28;8882;-57
2021/12/17 07:56:24;;;;;;;;;14.50;12.00;;;;;9.26;88.87;102129.88;5062006;28;8844;-57
2021/12/17 07:58:51;;;;;;;;;7.00;6.50;;;;;9.27;88.53;102134.25;5060298;28;8860;-57
2021/12/17 08:01:20;;;;;;;;;12.50;9.25;;;;;9.26;88.92;102137.00;5060942;28;8863;-57
2021/12/17 08:03:48;;;;;;;;;6.25;6.25;;;;;9.25;88.48;102152.06;5059424;28;8852;-58
2021/12/17 08:06:16;;;;;;;;;16.50;13.00;;;;;9.25;88.40;102156.50;5062094;28;8860;-57
2021/12/17 08:08:43;;;;;;;;;11.00;7.00;;;;;9.23;88.82;102153.03;5062728;28;8852;-57
2021/12/17 08:11:11;;;;;;;;;9.25;9.25;;;;;9.25;89.06;102156.50;5056451;28;8844;-57
2021/12/17 08:13:41;;;;;;;;;10.25;9.50;;;;;9.24;89.31;102154.78;5060030;28;8872;-57
2021/12/17 08:16:20;;;;;;;;;10.25;10.25;;;;;9.22;88.79;102152.19;5059631;28;9133;-57
2021/12/17 08:23:05;;;;;;;;;10.00;8.00;;;;;9.22;88.96;102151.31;5058766;28;8967;-57
2021/12/17 08:24:47;;;;;;;;;10.00;9.50;;;;;9.22;88.63;102160.16;5062335;28;9139;-57
2021/12/17 08:27:30;;;;;;;;;5.00;5.00;;;;;9.22;88.66;102156.63;5061685;28;8855;-57
2021/12/17 08:30:20;;;;;;;;;7.50;6.75;;;;;9.19;88.76;102162.94;5059585;28;8867;-57
2021/12/17 08:32:49;;;;;;;;;4.00;3.50;;;;;9.21;89.16;102170.84;5058095;28;9233;-57
2021/12/17 08:35:17;;;;;;;;;6.75;6.00;;;;;9.20;88.79;102169.13;5064655;28;8970;-57
2021/12/17 08:37:44;;;;;;;;;10.00;10.00;;;;;9.20;88.77;102169.97;5075500;28;8935;-57
2021/12/17 08:40:12;;;;;;;;;6.00;6.00;;;;;9.22;89.02;102175.25;5078392;28;8850;-57
2021/12/17 08:42:40;;;;;;;;;7.00;5.75;;;;;9.23;89.36;102184.94;5083168;28;8853;-57
2021/12/17 08:45:08;;;;;;;;;4.00;1.00;;;;;9.24;89.13;102179.56;5081321;28;8862;-57
2021/12/17 08:47:37;;;;;;;;;7.50;7.50;;;;;9.27;88.95;102176.78;5083685;28;8846;-57
2021/12/17 08:50:06;;;;;;;;;8.25;8.00;;;;;9.27;89.00;102187.41;5079688;28;8873;-57
2021/12/17 08:52:34;;;;;;;;;10.50;8.50;;;;;9.29;89.20;102190.91;5078885;28;8853;-57
2021/12/17 08:55:02;;;;;;;;;7.00;3.00;;;;;9.32;88.75;102187.25;5079976;28;8841;-57
2021/12/17 08:57:30;;;;;;;;;9.50;7.00;;;;;9.31;89.19;102181.06;5077885;28;8842;-57
2021/12/17 09:00:00;;;;;;;;;3.00;2.00;;;;;9.34;88.75;102183.59;5078742;28;8834;-58
2021/12/17 09:02:29;;;;;;;;;5.00;4.75;;;;;9.36;88.49;102186.22;5080534;28;8957;-57
2021/12/17 09:04:56;;;;;;;;;6.50;6.50;;;;;9.37;88.57;102182.63;5078174;28;8866;-57
2021/12/17 09:07:24;;;;;;;;;6.75;4.75;;;;;9.38;88.84;102187.00;5076894;28;8919;-57
2021/12/17 09:09:52;;;;;;;;;10.00;7.00;;;;;9.41;88.77;102181.59;5076562;28;8874;-57
2021/12/17 09:12:20;;;;;;;;;1.50;1.50;;;;;9.42;88.94;102185.97;5079399;28;8838;-57
2021/12/17 09:14:47;;;;;;;;;9.25;8.50;;;;;9.44;88.76;102190.31;5078087;28;8876;-57
2021/12/17 09:17:15;;;;;;;;;3.50;3.50;;;;;9.45;88.65;102192.03;5075360;28;8834;-57
2021/12/17 09:19:43;;;;;;;;;11.00;8.50;;;;;9.46;88.99;102192.88;5077722;28;9142;-57
2021/12/17 09:22:11;;;;;;;;;6.00;5.00;;;;;9.45;88.21;102189.38;5080058;28;9285;-57
2021/12/17 09:24:39;;;;;;;;;10.25;6.50;;;;;9.45;88.63;102192.03;5081151;28;9155;-58
2021/12/17 09:27:06;;;;;;;;;9.75;8.00;;;;;9.46;88.97;102198.22;5076376;28;8946;-57
2021/12/17 09:29:34;;;;;;;;;13.00;10.00;;;;;9.50;88.25;102198.03;5080813;28;8866;-57
2021/12/17 09:32:02;;;;;;;;;9.25;6.25;;;;;9.51;88.79;102191.81;5079224;28;8862;-57
2021/12/17 09:34:29;;;;;;;;;7.25;6.50;;;;;9.50;88.66;102190.06;5078901;28;8861;-57
2021/12/17 09:36:59;;;;;;;;;6.50;5.00;;;;;9.53;88.42;102181.97;5076642;28;8997;-57
2021/12/17 09:39:27;;;;;;;;;5.50;5.50;;;;;9.57;88.22;102180.91;5075934;28;8879;-57
2021/12/17 09:41:55;;;;;;;;;6.50;6.00;;;;;9.61;88.38;102187.84;5080447;28;8884;-57
2021/12/17 09:44:23;;;;;;;;;7.00;6.50;;;;;9.64;88.04;102182.41;5075202;28;9108;-57
2021/12/17 09:46:51;;;;;;;;;8.00;7.00;;;;;9.66;87.96;102180.53;5077578;28;8846;-57
2021/12/17 09:49:19;;;;;;;;;8.00;7.50;;;;;9.67;88.42;102182.28;5080891;28;8887;-57
2021/12/17 09:51:47;;;;;;;;;7.00;7.00;;;;;9.68;87.96;102177.81;5075594;28;8846;-58
2021/12/17 09:54:15;;;;;;;;;8.00;6.75;;;;;9.68;88.17;102183.13;5079515;28;8854;-57
2021/12/17 09:56:43;;;;;;;;;4.50;3.75;;;;;9.68;88.36;102181.34;5079392;28;9249;-57
2021/12/17 09:59:11;;;;;;;;;9.75;7.00;;;;;9.69;88.49;102185.75;5075107;28;8838;-57
2021/12/17 10:01:39;;;;;;;;;4.00;4.00;;;;;9.69;88.29;102184.88;5076808;28;8854;-58
2021/12/17 10:04:07;;;;;;;;;10.50;7.00;;;;;9.68;87.97;102183.13;5074614;28;8842;-57
2021/12/17 10:06:35;;;;;;;;;4.00;4.00;;;;;9.68;88.27;102184.03;5078246;28;8850;-57
2021/12/17 10:09:03;;;;;;;;;6.50;4.00;;;;;9.69;88.19;102191.06;5073581;28;8978;-57
2021/12/17 10:11:30;;;;;;;;;8.25;7.25;;;;;9.70;88.52;102187.47;5075136;28;8850;-57
2021/12/17 10:13:58;;;;;;;;;5.25;5.00;;;;;9.71;88.00;102194.53;5071894;28;8862;-57
2021/12/17 10:16:26;;;;;;;;;5.50;3.75;;;;;9.72;88.36;102195.41;5073709;28;8871;-57
2021/12/17 10:18:54;;;;;;;;;3.00;3.00;;;;;9.72;88.42;102192.75;5078566;28;8845;-57
2021/12/17 10:21:22;;;;;;;;;3.25;3.25;;;;;9.69;87.76;102185.75;5076673;28;8858;-57
2021/12/17 10:23:50;;;;;;;;;1.50;1.00;;;;;9.70;87.98;102194.56;5075350;28;8958;-57
2021/12/17 10:26:17;;;;;;;;;5.25;4.50;;;;;9.68;87.77;102194.66;5072336;28;8906;-57
2021/12/17 10:28:45;;;;;;;;;4.75;3.75;;;;;9.68;88.14;102199.09;5072088;28;8850;-57
2021/12/17 10:31:14;;;;;;;;;5.50;4.50;;;;;9.67;88.31;102203.56;5071889;28;9119;-57
2021/12/17 10:33:42;;;;;;;;;0.75;0.75;;;;;9.67;88.86;102210.66;5070669;28;8857;-57
2021/12/17 10:36:14;;;;;;;;;0.75;0.00;;;;;9.66;88.35;102217.78;5068645;28;8888;-57
2021/12/17 10:39:02;;;;;;;;;3.75;3.50;;;;;9.66;88.31;102223.09;5074179;28;8878;-57
2021/12/17 10:41:31;;;;;;;;;4.50;4.00;;;;;9.67;88.56;102208.00;5071439;28;9162;-57
2021/12/17 10:44:00;;;;;;;;;4.00;4.00;;;;;9.66;88.11;102206.28;5074264;28;9136;-57
2021/12/17 10:46:30;;;;;;;;;3.75;3.50;;;;;9.66;88.41;102211.59;5076996;28;9147;-57
2021/12/17 10:49:12;;;;;;;;;3.25;3.00;;;;;9.64;88.25;102209.00;5076199;28;8849;-57
2021/12/17 10:51:50;;;;;;;;;2.50;2.50;;;;;9.61;88.45;102209.13;5078901;28;8842;-57
2021/12/17 10:54:18;;;;;;;;;6.50;4.00;;;;;9.60;88.99;102215.38;5076441;28;8872;-57
2021/12/17 10:56:46;;;;;;;;;4.00;3.00;;;;;9.59;88.36;102210.09;5075486;28;8842;-57
2021/12/17 10:59:14;;;;;;;;;1.50;1.50;;;;;9.59;88.67;102211.00;5075314;28;9164;-57
2021/12/17 11:01:43;;;;;;;;;3.00;2.50;;;;;9.61;88.31;102206.47;5073696;28;9491;-57
2021/12/17 11:04:11;;;;;;;;;3.00;3.00;;;;;9.63;88.46;102206.41;5070863;28;8964;-57
2021/12/17 11:06:39;;;;;;;;;1.00;1.00;;;;;9.65;88.68;102217.84;5074346;28;9259;-57
2021/12/17 11:09:07;;;;;;;;;3.50;3.50;;;;;9.64;88.49;102209.00;5069640;28;8968;-57
2021/12/17 11:11:41;;;;;;;;;4.50;4.50;;;;;9.65;88.32;102200.09;5078430;28;9107;-58
2021/12/17 11:14:08;;;;;;;;;4.00;3.00;;;;;9.68;88.42;102199.97;5075286;28;8838;-57
2021/12/17 11:16:36;;;;;;;;;1.00;1.00;;;;;9.69;88.70;102198.16;5077596;28;8838;-57
2021/12/17 11:19:04;;;;;;;;;4.50;3.50;;;;;9.70;88.38;102198.13;5073774;28;8850;-57
2021/12/17 11:21:32;;;;;;;;;0.75;0.75;;;;;9.70;88.33;102200.78;5076117;28;8850;-57
2021/12/17 11:24:00;;;;;;;;;4.00;4.00;;;;;9.73;88.53;102199.78;5077096;28;9230;-57
2021/12/17 11:26:28;;;;;;;;;3.00;3.00;;;;;9.75;88.32;102195.28;5079518;28;9291;-57
2021/12/17 11:29:00;;;;;;;;;1.00;0.75;;;;;9.76;88.40;102191.69;5078112;28;8860;-57
2021/12/17 11:31:28;;;;;;;;;0.50;0.50;;;;;9.78;88.01;102182.72;5078180;28;9200;-57
2021/12/17 11:33:56;;;;;;;;;3.00;1.00;;;;;9.76;88.37;102181.91;5076128;28;8852;-57
2021/12/17 11:36:24;;;;;;;;;1.00;1.00;;;;;9.74;88.04;102183.78;5079719;28;8913;-57
2021/12/17 11:38:52;;;;;;;;;1.00;1.00;;;;;9.70;88.31;102182.16;5076068;28;8880;-57
2021/12/17 11:41:32;;;;;;;;;1.00;1.00;;;;;9.65;87.91;102183.28;5074976;28;8842;-57
2021/12/17 11:44:00;;;;;;;;;2.00;2.00;;;;;9.62;87.99;102186.91;5079827;28;9169;-57
2021/12/17 11:46:28;;;;;;;;;4.00;2.00;;;;;9.58;88.29;102187.94;5077665;28;8826;-57
2021/12/17 11:48:55;;;;;;;;;1.00;1.00;;;;;9.56;88.65;102189.81;5072339;28;9136;-57
2021/12/17 11:51:27;;;;;;;;;1.00;1.00;;;;;9.52;88.56;102190.00;5077463;28;8850;-57
2021/12/17 11:53:55;;;;;;;;;1.00;1.00;;;;;9.52;88.44;102182.03;5077831;28;8853;-57
2021/12/17 11:56:24;;;;;;;;;3.00;3.00;;;;;9.56;88.30;102178.31;5077796;28;8862;-57
2021/12/17 11:58:53;;;;;;;;;1.00;0.75;;;;;9.56;88.32;102184.50;5076723;28;8842;-57
2021/12/17 12:01:21;;;;;;;;;3.75;3.50;;;;;9.59;88.13;102187.06;5080624;28;9496;-57
2021/12/17 12:03:51;;;;;;;;;3.00;3.00;;;;;9.59;88.56;102184.41;5078763;28;8833;-57
2021/12/17 12:06:19;;;;;;;;;3.00;2.50;;;;;9.58;87.90;102185.28;5081370;28;8950;-57
2021/12/17 12:08:50;;;;;;;;;4.00;4.00;;;;;9.56;88.58;102188.97;5082672;28;8850;-57
2021/12/17 12:11:19;;;;;;;;;2.00;2.00;;;;;9.50;88.75;102190.06;5082173;28;8888;-57
2021/12/17 12:13:46;;;;;;;;;3.50;3.00;;;;;9.45;88.40;102197.38;5082682;28;8984;-57
2021/12/17 12:16:14;;;;;;;;;1.00;1.00;;;;;9.40;88.29;102187.81;5082413;28;8883;-57
2021/12/17 12:18:42;;;;;;;;;1.00;1.00;;;;;9.36;88.80;102203.03;5082887;28;8857;-57
2021/12/17 12:21:10;;;;;;;;;1.00;1.00;;;;;9.33;88.98;102197.81;5081214;28;9766;-57
2021/12/17 12:23:37;;;;;;;;;1.00;1.00;;;;;9.33;88.87;102210.28;5079977;28;8862;-56
2021/12/17 12:26:07;;;;;;;;;1.00;0.00;;;;;9.32;88.61;102208.50;5081638;28;8907;-57
2021/12/17 12:28:35;;;;;;;;;0.50;0.50;;;;;9.32;88.93;102206.72;5083083;28;8903;-56
2021/12/17 12:31:19;;;;;;;;;0.00;0.00;;;;;9.32;88.79;102201.41;5081462;28;8845;-56
2021/12/17 12:33:46;;;;;;;;;1.00;1.00;;;;;9.33;88.81;102202.28;5081761;28;8883;-57
2021/12/17 12:36:14;;;;;;;;;1.00;1.00;;;;;9.32;89.04;102198.75;5080364;28;8893;-57
2021/12/17 12:38:42;;;;;;;;;2.00;1.00;;;;;9.33;88.54;102197.81;5077966;28;8888;-56
2021/12/17 12:41:12;;;;;;;;;1.00;1.00;;;;;9.34;88.63;102190.72;5080472;28;9297;-57
2021/12/17 12:43:40;;;;;;;;;1.00;1.00;;;;;9.35;88.66;102189.81;5081268;28;8857;-57
2021/12/17 12:46:09;;;;;;;;;2.00;2.00;;;;;9.36;88.53;102179.13;5078699;28;8850;-57
2021/12/17 12:48:38;;;;;;;;;0.75;0.50;;;;;9.38;89.13;102189.66;5075106;28;9169;-57
2021/12/17 12:51:06;;;;;;;;;2.00;1.00;;;;;9.40;88.61;102183.38;5080242;28;8869;-56
2021/12/17 12:53:36;;;;;;;;;3.00;3.00;;;;;9.40;88.65;102180.72;5079430;28;9173;-56
2021/12/17 12:56:05;;;;;;;;;1.00;1.00;;;;;9.41;88.66;102181.59;5079660;28;8934;-56
2021/12/17 12:58:37;;;;;;;;;0.00;0.00;;;;;9.42;88.83;102176.19;5079222;28;8949;-57
2021/12/17 13:01:05;;;;;;;;;1.00;0.25;;;;;9.43;88.46;102183.22;5082472;28;8842;-57
2021/12/17 13:03:32;;;;;;;;;3.00;3.00;;;;;9.45;87.91;102183.19;5078697;28;8834;-56
2021/12/17 13:06:00;;;;;;;;;2.00;1.00;;;;;9.44;88.53;102185.00;5077091;28;9181;-57
2021/12/17 13:08:30;;;;;;;;;0.25;0.00;;;;;9.46;88.15;102185.78;5077041;28;8982;-57
2021/12/17 13:10:59;;;;;;;;;3.00;2.00;;;;;9.48;88.08;102188.41;5076221;28;8967;-57
2021/12/17 13:13:36;;;;;;;;;1.00;1.00;;;;;9.47;88.18;102190.19;5078353;28;8846;-57
2021/12/17 13:16:09;;;;;;;;;1.00;1.00;;;;;9.47;88.37;102179.53;5077404;28;8854;-57
2021/12/17 13:24:11;;;;;;;;;1.00;1.00;;;;;9.42;88.50;102170.88;5079949;28;8866;-57
2021/12/17 13:26:39;;;;;;;;;2.50;1.00;;;;;9.43;88.40;102169.94;5081274;28;8858;-57
2021/12/17 13:29:09;;;;;;;;;3.00;3.00;;;;;9.41;88.56;102173.63;5081901;28;8850;-57
2021/12/17 13:31:37;;;;;;;;;1.00;1.00;;;;;9.38;88.64;102169.28;5082505;28;8850;-56
2021/12/17 13:34:04;;;;;;;;;1.00;1.00;;;;;9.36;88.26;102167.59;5079785;28;8862;-57
2021/12/17 13:36:32;;;;;;;;;2.50;2.50;;;;;9.34;88.25;102167.66;5080987;28;8951;-57
2021/12/17 13:39:00;;;;;;;;;3.00;3.00;;;;;9.32;88.31;102165.97;5082566;28;8853;-56
2021/12/17 13:41:28;;;;;;;;;3.25;3.25;;;;;9.29;88.67;102156.34;5081944;28;8842;-57
2021/12/17 13:43:56;;;;;;;;;3.00;2.50;;;;;9.26;88.27;102158.25;5078262;28;9028;-57
2021/12/17 13:46:24;;;;;;;;;3.00;1.50;;;;;9.24;88.32;102158.31;5077371;28;8857;-57